Overview Statistics Trail Chart Weather Telemetry Raw packets
 

This is the latest recevied weather packets stored in our database for station/object KF7SOJ. If no packets are shown the sender has not sent any weather packets the latest 10 day(s).

<< 82 83 84 85 86 87 88 >>
Time Temp. Humidity Pressure Rain* Wind** Luminosity Snow
1788014456 20° C 52% 930.6 hPa 0 mm - 79 W/m² -
1788014151 20° C 53% 930.3 hPa 0 mm - 76 W/m² -
1788013851 20.56° C 52% 930.2 hPa 0 mm - 78 W/m² -
1788013550 20.56° C 50% 930.2 hPa 0 mm - 58 W/m² -
1788013251 20° C 51% 930.1 hPa 0 mm - 43 W/m² -
1788012950 20° C 50% 930.2 hPa 0 mm - 36 W/m² -
1788012650 20.56° C 49% 930.1 hPa 0 mm - 36 W/m² -
1788012344 20.56° C 47% 930 hPa 0 mm - 43 W/m² -
1788012040 20.56° C 48% 929.9 hPa 0 mm - 51 W/m² -
1788011738 20.56° C 48% 929.9 hPa 0 mm - 46 W/m² -
1788011434 20° C 50% 929.8 hPa 0 mm - 31 W/m² -
1788011133 20° C 52% 929.7 hPa 0 mm - 24 W/m² -
1788010828 19.44° C 59% 929.7 hPa 0 mm - 21 W/m² -
1788010527 18.89° C 62% 929.9 hPa 0 mm - 18 W/m² -
1788010222 18.33° C 68% 929.8 hPa 0 mm - 16 W/m² -
1788009921 19.44° C 55% 929.8 hPa 0 mm - 14 W/m² -
1788009620 18.89° C 61% 929.7 hPa 0 mm - 13 W/m² -
1788009314 17.78° C 69% 929.6 hPa 0 mm - 9 W/m² -
1788009009 19.44° C 56% 929.7 hPa 0 mm - 10 W/m² -
1788008705 20.56° C 60% 929.6 hPa 0 mm - 9 W/m² -
1788008403 20.56° C 51% 929.6 hPa 0 mm - 9 W/m² -
1788008109 20° C 53% 929.5 hPa 0 mm - 8 W/m² -
1788007800 20.56° C 52% 929.5 hPa 0 mm - 7 W/m² -
1788007499 20.56° C 51% 929.7 hPa 0 mm - 7 W/m² -
1788007194 20.56° C 51% 929.3 hPa 0 mm - 3 W/m² -

* Rain latest hour (hover to see other rain measurements)
** Current wind speed in m/s (hover to see current wind gust speed)